createdAt,value
2017-02-23T04:00:55.710Z,17.04
2017-02-23T04:01:21.277Z,17.04
2017-02-23T04:01:46.863Z,17.03
2017-02-23T04:02:12.427Z,17.03
2017-02-23T04:02:38.051Z,16.99
2017-02-23T04:03:03.633Z,17.03
2017-02-23T04:03:29.201Z,17.06
2017-02-23T04:03:54.774Z,17.06
2017-02-23T04:04:20.341Z,17.08
2017-02-23T04:04:45.896Z,16.95
2017-02-23T04:05:11.448Z,17.08
2017-02-23T04:05:37.027Z,17.03
2017-02-23T04:06:02.632Z,17.04
2017-02-23T04:06:28.723Z,17.03
2017-02-23T04:06:53.742Z,17.04
2017-02-23T04:07:19.323Z,16.99
2017-02-23T04:07:44.877Z,17.06
2017-02-23T04:08:10.443Z,17.04
2017-02-23T04:08:36.012Z,16.96
2017-02-23T04:09:01.591Z,17.03
2017-02-23T04:09:27.341Z,17.04
2017-02-23T04:09:52.894Z,17.06
2017-02-23T04:10:18.471Z,17
2017-02-23T04:10:44.578Z,17.04
2017-02-23T04:11:10.154Z,17.07
2017-02-23T04:11:36.658Z,17.1
2017-02-23T04:12:02.223Z,17.06
2017-02-23T04:12:27.786Z,17.08
2017-02-23T04:12:53.354Z,16.96
2017-02-23T04:13:18.918Z,17.07
2017-02-23T04:13:44.483Z,17.11
2017-02-23T04:14:10.066Z,17.08
2017-02-23T04:14:35.633Z,17.06
2017-02-23T04:15:01.204Z,17
2017-02-23T04:15:26.825Z,17.08
2017-02-23T04:15:52.395Z,17.06
2017-02-23T04:16:17.951Z,17.06
2017-02-23T04:16:43.509Z,17
2017-02-23T04:17:09.093Z,17.1
2017-02-23T04:17:34.669Z,17
2017-02-23T04:18:00.234Z,17.03
2017-02-23T04:18:25.807Z,17.06
2017-02-23T04:18:51.362Z,17.07
2017-02-23T04:19:17.011Z,17
2017-02-23T04:19:42.582Z,17.04
2017-02-23T04:20:08.134Z,17.08
2017-02-23T04:20:33.692Z,17
2017-02-23T04:20:59.352Z,17
2017-02-23T04:21:24.919Z,17.06
2017-02-23T04:21:50.491Z,17.06
2017-02-23T04:22:16.728Z,17.04
2017-02-23T04:22:41.823Z,17.04
2017-02-23T04:23:07.393Z,16.99
2017-02-23T04:23:32.942Z,17
2017-02-23T04:23:58.478Z,17.04
2017-02-23T04:24:24.029Z,17.11
2017-02-23T04:24:49.584Z,16.99
2017-02-23T04:25:15.135Z,17.11
2017-02-23T04:25:40.693Z,17
2017-02-23T04:26:06.256Z,17
2017-02-23T04:26:31.813Z,17.06
2017-02-23T04:26:57.378Z,17
2017-02-23T04:27:22.928Z,16.99
2017-02-23T04:27:48.480Z,17.03
2017-02-23T04:28:14.089Z,17
2017-02-23T04:28:39.644Z,16.98
2017-02-23T04:29:05.254Z,16.98
2017-02-23T04:29:30.823Z,17.08
2017-02-23T04:29:56.357Z,17
2017-02-23T04:30:21.921Z,17.03
2017-02-23T04:30:47.451Z,17.08
2017-02-23T04:31:12.992Z,16.98
2017-02-23T04:31:38.553Z,17
2017-02-23T04:32:04.182Z,17
2017-02-23T04:32:29.724Z,17
2017-02-23T04:32:55.271Z,16.98
2017-02-23T04:33:20.811Z,16.96
2017-02-23T04:33:46.458Z,16.99
2017-02-23T04:34:12.031Z,16.99
2017-02-23T04:34:37.610Z,17.03
2017-02-23T04:35:03.256Z,17.03
2017-02-23T04:35:28.933Z,17.06
2017-02-23T04:35:54.504Z,16.95
2017-02-23T04:36:20.059Z,17
2017-02-23T04:36:45.623Z,17
2017-02-23T04:37:11.272Z,17.04
2017-02-23T04:37:36.843Z,17
2017-02-23T04:38:02.409Z,17.06
2017-02-23T04:38:28.099Z,17.03
2017-02-23T04:38:53.663Z,16.98
2017-02-23T04:39:19.223Z,16.96
2017-02-23T04:39:44.839Z,17
2017-02-23T04:40:10.408Z,17.03
2017-02-23T04:40:35.953Z,16.99
2017-02-23T04:41:02.244Z,16.99
2017-02-23T04:41:27.078Z,16.99
2017-02-23T04:41:52.631Z,17
2017-02-23T04:42:18.255Z,16.96
2017-02-23T04:42:43.825Z,16.99
2017-02-23T04:43:09.352Z,17.04
2017-02-23T04:43:34.912Z,17
2017-02-23T04:44:00.460Z,17.03
2017-02-23T04:44:26.056Z,16.99
2017-02-23T04:44:51.624Z,17.03
2017-02-23T04:45:17.192Z,17.04
2017-02-23T04:45:42.748Z,16.98
2017-02-23T04:46:08.314Z,16.96
2017-02-23T04:46:33.873Z,17.06
2017-02-23T04:46:59.424Z,17.03
2017-02-23T04:47:24.992Z,16.95
2017-02-23T04:47:50.556Z,17
2017-02-23T04:48:16.746Z,17.03
2017-02-23T04:48:41.765Z,17
2017-02-23T04:49:08.249Z,17
2017-02-23T04:49:32.911Z,17.03
2017-02-23T04:49:58.473Z,17.03
2017-02-23T04:50:24.101Z,16.99
2017-02-23T04:50:49.662Z,17.03
2017-02-23T04:51:15.220Z,16.99
2017-02-23T04:51:40.809Z,16.96
2017-02-23T04:52:06.359Z,17
2017-02-23T04:52:31.910Z,16.99
2017-02-23T04:52:57.461Z,17.03
2017-02-23T04:53:23.026Z,17.06
2017-02-23T04:53:48.603Z,16.99
2017-02-23T04:54:14.184Z,17.06
2017-02-23T04:54:39.753Z,16.99
2017-02-23T04:55:05.323Z,17.04
2017-02-23T04:55:30.898Z,16.98
2017-02-23T04:55:56.456Z,17.03
2017-02-23T04:56:22.017Z,16.96
2017-02-23T04:56:47.706Z,17.03
2017-02-23T04:57:13.344Z,16.99
2017-02-23T04:57:39.886Z,16.96
2017-02-23T04:58:05.455Z,16.99
2017-02-23T04:58:31.024Z,17
2017-02-23T04:58:56.748Z,17.04
2017-02-23T04:59:22.303Z,16.99
2017-02-23T04:59:47.870Z,16.96
2017-02-23T05:00:13.531Z,16.98
2017-02-23T05:00:39.104Z,17
2017-02-23T05:01:04.691Z,17
2017-02-23T05:01:30.236Z,17.04
2017-02-23T05:01:55.838Z,17.04
2017-02-23T05:02:21.395Z,16.96
2017-02-23T05:02:46.961Z,16.98
2017-02-23T05:03:14.511Z,17
2017-02-23T05:03:40.083Z,17.03
2017-02-23T05:04:05.635Z,16.93
2017-02-23T05:04:31.243Z,16.95
2017-02-23T05:04:56.815Z,17.04
2017-02-23T05:05:22.444Z,16.99
2017-02-23T05:05:48.061Z,17.04
2017-02-23T05:06:13.688Z,17.04
2017-02-23T05:06:40.026Z,16.92
2017-02-23T05:07:05.632Z,17.06
2017-02-23T05:07:31.201Z,17.03
2017-02-23T05:07:56.771Z,17.06
2017-02-23T05:08:22.580Z,16.95
2017-02-23T05:08:48.132Z,16.99
2017-02-23T05:09:13.696Z,17
2017-02-23T05:09:39.271Z,16.96
2017-02-23T05:10:04.888Z,16.95
2017-02-23T05:10:30.453Z,17
2017-02-23T05:10:56.024Z,17.04
2017-02-23T05:11:21.583Z,16.99
2017-02-23T05:11:47.153Z,16.98
2017-02-23T05:12:12.710Z,16.99
2017-02-23T05:12:38.300Z,16.99
2017-02-23T05:13:03.884Z,17.04
2017-02-23T05:13:29.582Z,16.96
2017-02-23T05:13:55.150Z,17.06
2017-02-23T05:14:20.711Z,16.89
2017-02-23T05:14:46.275Z,16.98
2017-02-23T05:15:11.843Z,17.04
2017-02-23T05:15:37.419Z,16.99
2017-02-23T05:16:02.977Z,17.04
2017-02-23T05:16:28.623Z,16.98
2017-02-23T05:16:54.206Z,17.04
2017-02-23T05:17:19.774Z,17
2017-02-23T05:17:45.335Z,17.03
2017-02-23T05:18:10.985Z,17.04
2017-02-23T05:18:36.579Z,16.95
2017-02-23T05:19:02.141Z,16.99
2017-02-23T05:19:27.720Z,17
2017-02-23T05:19:53.322Z,16.98
2017-02-23T05:20:18.877Z,16.99
2017-02-23T05:20:44.449Z,17.04
2017-02-23T05:21:10.000Z,17.04
2017-02-23T05:21:35.571Z,17.03
2017-02-23T05:22:01.134Z,16.99
2017-02-23T05:22:26.715Z,16.99
2017-02-23T05:22:52.278Z,16.99
2017-02-23T05:23:17.844Z,17.03
2017-02-23T05:23:43.402Z,17.03
2017-02-23T05:24:08.964Z,17
2017-02-23T05:24:34.525Z,16.98
2017-02-23T05:25:00.090Z,16.92
2017-02-23T05:25:25.662Z,17
2017-02-23T05:25:51.232Z,16.99
2017-02-23T05:26:16.793Z,17
2017-02-23T05:26:42.371Z,17.03
2017-02-23T05:27:07.920Z,16.93
2017-02-23T05:27:33.473Z,17.03
2017-02-23T05:27:59.098Z,17.04
2017-02-23T05:28:24.645Z,17
2017-02-23T05:28:50.205Z,16.99
2017-02-23T05:29:15.846Z,17
2017-02-23T05:29:41.415Z,16.98
2017-02-23T05:30:06.986Z,16.99
2017-02-23T05:30:32.593Z,17.03
2017-02-23T05:30:58.261Z,16.99
2017-02-23T05:31:23.796Z,16.99
2017-02-23T05:31:49.344Z,16.96
2017-02-23T05:32:14.893Z,16.99
2017-02-23T05:32:40.468Z,16.99
2017-02-23T05:33:06.035Z,16.95
2017-02-23T05:33:31.589Z,17
2017-02-23T05:33:57.154Z,16.98
2017-02-23T05:34:22.742Z,16.96
2017-02-23T05:34:48.311Z,16.99
2017-02-23T05:35:13.894Z,17.04
2017-02-23T05:35:39.451Z,17
2017-02-23T05:36:04.996Z,17.04
2017-02-23T05:36:30.552Z,16.92
2017-02-23T05:36:56.136Z,16.99
2017-02-23T05:37:21.704Z,16.96
2017-02-23T05:37:47.271Z,17.04
2017-02-23T05:38:12.839Z,16.99
2017-02-23T05:38:38.379Z,17
2017-02-23T05:39:03.943Z,17
2017-02-23T05:39:29.487Z,17.04
2017-02-23T05:39:55.033Z,17
2017-02-23T05:40:20.576Z,16.96
2017-02-23T05:40:47.162Z,16.93
2017-02-23T05:41:12.730Z,17
2017-02-23T05:41:38.282Z,16.93
2017-02-23T05:42:03.853Z,17.06
2017-02-23T05:42:29.533Z,17
2017-02-23T05:42:55.097Z,16.96
2017-02-23T05:43:20.754Z,16.96
2017-02-23T05:43:46.327Z,17.03
2017-02-23T05:44:11.890Z,16.98
2017-02-23T05:44:37.453Z,16.99
2017-02-23T05:45:03.044Z,17
2017-02-23T05:45:28.620Z,17.03
2017-02-23T05:45:54.183Z,16.98
2017-02-23T05:46:19.748Z,17
2017-02-23T05:46:45.305Z,16.98
2017-02-23T05:47:10.944Z,16.9
2017-02-23T05:47:36.517Z,17
2017-02-23T05:48:40.021Z,17.04
2017-02-23T05:49:05.576Z,16.99
2017-02-23T05:49:31.134Z,16.99
2017-02-23T05:49:56.775Z,17.03
2017-02-23T05:50:22.337Z,17.04
2017-02-23T05:50:47.898Z,16.99
2017-02-23T05:51:13.563Z,16.95
2017-02-23T05:51:39.134Z,16.99
2017-02-23T05:52:04.693Z,17
2017-02-23T05:52:30.261Z,17
2017-02-23T05:52:55.962Z,17.03
2017-02-23T05:53:21.519Z,16.96
2017-02-23T05:53:47.084Z,16.95
2017-02-23T05:54:12.699Z,16.98
2017-02-23T05:54:38.375Z,16.95
2017-02-23T05:55:03.930Z,17.04
2017-02-23T05:55:29.507Z,17.03
2017-02-23T05:55:55.065Z,16.99
2017-02-23T05:56:20.618Z,17.04
2017-02-23T05:56:46.175Z,17
2017-02-23T05:57:11.741Z,16.99
2017-02-23T05:57:37.292Z,16.93
2017-02-23T05:58:03.420Z,17.04
2017-02-23T05:58:28.469Z,17.04
2017-02-23T05:58:54.808Z,17.06
2017-02-23T05:59:20.371Z,16.98
2017-02-23T05:59:45.944Z,16.96
2017-02-23T06:00:11.503Z,17.04
2017-02-23T06:00:37.062Z,16.89
2017-02-23T06:01:02.630Z,16.98
2017-02-23T06:01:28.215Z,16.98
2017-02-23T06:01:53.805Z,16.99
2017-02-23T06:02:19.363Z,16.93
2017-02-23T06:02:44.931Z,16.96
2017-02-23T06:03:10.513Z,16.95
2017-02-23T06:03:36.235Z,16.99
2017-02-23T06:04:01.815Z,17.03
2017-02-23T06:04:27.383Z,16.99
2017-02-23T06:04:52.963Z,16.99
2017-02-23T06:05:18.529Z,16.99
2017-02-23T06:05:44.090Z,16.99
2017-02-23T06:06:09.715Z,16.92
2017-02-23T06:06:35.295Z,16.96
2017-02-23T06:07:00.849Z,17
2017-02-23T06:07:26.424Z,16.95
2017-02-23T06:07:51.991Z,17
2017-02-23T06:08:17.545Z,16.99
2017-02-23T06:08:43.105Z,16.99
2017-02-23T06:09:08.663Z,16.92
2017-02-23T06:09:34.746Z,17
2017-02-23T06:10:00.315Z,16.99
2017-02-23T06:10:25.889Z,16.92
2017-02-23T06:10:51.439Z,16.92
2017-02-23T06:11:16.981Z,16.89
2017-02-23T06:11:43.411Z,16.99
2017-02-23T06:12:08.975Z,16.99
2017-02-23T06:12:34.560Z,17
2017-02-23T06:13:00.123Z,16.99
2017-02-23T06:13:25.693Z,16.99
2017-02-23T06:13:51.375Z,16.98
2017-02-23T06:14:16.944Z,16.92
2017-02-23T06:14:42.646Z,17
2017-02-23T06:15:08.230Z,16.99
2017-02-23T06:15:33.785Z,17
2017-02-23T06:15:59.340Z,16.95
2017-02-23T06:16:25.019Z,16.98
2017-02-23T06:16:51.437Z,17.04
2017-02-23T06:17:16.158Z,17.03
2017-02-23T06:17:41.728Z,16.99
2017-02-23T06:18:07.298Z,16.99
2017-02-23T06:18:32.874Z,16.99
2017-02-23T06:18:58.416Z,17
2017-02-23T06:19:23.976Z,16.99
2017-02-23T06:19:49.542Z,16.98
2017-02-23T06:20:16.084Z,16.99
2017-02-23T06:20:42.922Z,17.04
2017-02-23T06:21:07.841Z,17
2017-02-23T06:21:33.398Z,16.99
2017-02-23T06:21:58.966Z,16.99
2017-02-23T06:22:24.542Z,16.96
2017-02-23T06:22:50.400Z,16.99
2017-02-23T06:23:15.965Z,16.98
2017-02-23T06:23:41.533Z,16.98
2017-02-23T06:24:07.074Z,16.95
2017-02-23T06:24:32.714Z,16.98
2017-02-23T06:24:58.272Z,17.04
2017-02-23T06:25:51.588Z,17.04
2017-02-23T06:26:17.156Z,16.95
2017-02-23T06:26:42.766Z,17
2017-02-23T06:27:08.340Z,16.9
2017-02-23T06:27:33.905Z,16.99
2017-02-23T06:27:59.470Z,16.96
2017-02-23T06:28:25.102Z,16.9
2017-02-23T06:28:50.663Z,17.04
2017-02-23T06:29:16.229Z,16.96
2017-02-23T06:29:41.787Z,16.93
2017-02-23T06:30:07.349Z,16.99
2017-02-23T06:30:33.502Z,16.89
2017-02-23T06:30:59.032Z,16.99
2017-02-23T06:31:24.603Z,16.96
2017-02-23T06:31:50.170Z,16.99
2017-02-23T06:32:15.744Z,16.96
2017-02-23T06:32:41.304Z,17.03
2017-02-23T06:33:08.621Z,17.03
2017-02-23T06:33:34.183Z,16.88
2017-02-23T06:34:00.471Z,17.04
2017-02-23T06:34:25.295Z,17
2017-02-23T06:34:50.920Z,16.98
2017-02-23T06:35:17.475Z,17.04
2017-02-23T06:35:42.025Z,17
2017-02-23T06:36:07.584Z,16.99
2017-02-23T06:36:33.157Z,17.06
2017-02-23T06:36:58.732Z,17.03
2017-02-23T06:37:24.311Z,16.92
2017-02-23T06:37:49.842Z,16.99
2017-02-23T06:38:15.376Z,16.95
2017-02-23T06:38:41.007Z,17
2017-02-23T06:39:06.550Z,16.96
2017-02-23T06:39:32.176Z,16.98
2017-02-23T06:39:57.730Z,16.98
2017-02-23T06:40:23.278Z,16.98
2017-02-23T06:40:48.954Z,16.99
2017-02-23T06:41:14.503Z,16.99
2017-02-23T06:41:40.086Z,17
2017-02-23T06:42:05.653Z,16.99
2017-02-23T06:42:31.244Z,17
2017-02-23T06:42:56.811Z,17
2017-02-23T06:43:22.357Z,17.04
2017-02-23T06:43:47.909Z,17
2017-02-23T06:44:13.465Z,17.03
2017-02-23T06:44:39.018Z,17
2017-02-23T06:45:04.575Z,16.96
2017-02-23T06:45:30.146Z,17
2017-02-23T06:45:55.714Z,17.06
2017-02-23T06:46:21.982Z,17.03
2017-02-23T06:46:46.853Z,16.9
2017-02-23T06:47:12.421Z,16.99
2017-02-23T06:47:37.976Z,17.03
2017-02-23T06:48:03.545Z,16.98
2017-02-23T06:48:29.603Z,16.99
2017-02-23T06:48:55.173Z,16.98
2017-02-23T06:49:20.730Z,16.95
2017-02-23T06:49:46.284Z,17.04
2017-02-23T06:50:11.941Z,16.95
2017-02-23T06:50:37.506Z,16.99
2017-02-23T06:51:03.059Z,17
2017-02-23T06:51:28.650Z,16.96
2017-02-23T06:51:54.201Z,16.95
2017-02-23T06:52:19.762Z,16.99
2017-02-23T06:52:45.344Z,16.98
2017-02-23T06:53:10.918Z,16.92
2017-02-23T06:53:36.527Z,17.04
2017-02-23T06:54:02.102Z,17.04
2017-02-23T06:54:27.657Z,17.06
2017-02-23T06:54:53.220Z,17.04
2017-02-23T06:55:18.764Z,17.04
2017-02-23T06:55:44.320Z,16.99
2017-02-23T06:56:09.881Z,16.99
2017-02-23T06:56:35.441Z,17.04
2017-02-23T06:57:01.479Z,17.04
2017-02-23T06:57:26.565Z,16.96
2017-02-23T06:57:52.123Z,16.96
2017-02-23T06:58:17.687Z,17.04
2017-02-23T06:58:43.277Z,17
2017-02-23T06:59:08.835Z,16.99
2017-02-23T06:59:34.389Z,16.96
2017-02-23T06:59:59.940Z,17.04
2017-02-23T07:00:25.498Z,17
2017-02-23T07:01:28.996Z,16.95
2017-02-23T07:01:54.573Z,16.99
2017-02-23T07:02:20.131Z,16.99
2017-02-23T07:02:45.692Z,16.95
2017-02-23T07:03:11.269Z,16.99
2017-02-23T07:03:36.855Z,16.95
2017-02-23T07:04:02.421Z,17
2017-02-23T07:04:27.983Z,17.04
2017-02-23T07:04:53.538Z,16.99
2017-02-23T07:05:19.150Z,16.99
2017-02-23T07:05:44.708Z,16.98
2017-02-23T07:06:10.279Z,16.96
2017-02-23T07:06:35.830Z,16.99
2017-02-23T07:07:01.386Z,17
2017-02-23T07:07:26.947Z,16.99
2017-02-23T07:07:52.503Z,17
2017-02-23T07:08:18.153Z,16.99
2017-02-23T07:08:43.723Z,16.99
2017-02-23T07:09:09.288Z,16.96
2017-02-23T07:09:34.843Z,16.99
2017-02-23T07:10:00.402Z,16.98
2017-02-23T07:10:58.863Z,16.99
2017-02-23T07:11:24.447Z,16.98
2017-02-23T07:11:51.913Z,16.96
2017-02-23T07:13:57.263Z,16.92
2017-02-23T07:14:22.883Z,17
2017-02-23T07:14:48.466Z,16.92
2017-02-23T07:15:14.021Z,16.95
2017-02-23T07:15:39.635Z,16.99
2017-02-23T07:16:38.069Z,17
2017-02-23T07:17:03.638Z,16.96
2017-02-23T07:17:29.194Z,16.95
2017-02-23T07:17:54.753Z,16.95
2017-02-23T07:18:20.367Z,17
2017-02-23T07:18:45.967Z,16.99
2017-02-23T07:19:11.533Z,16.92
2017-02-23T07:19:37.093Z,16.89
2017-02-23T07:20:02.660Z,17
2017-02-23T07:20:28.237Z,16.95
2017-02-23T07:20:53.794Z,16.99
2017-02-23T07:21:19.356Z,16.99
2017-02-23T07:21:44.922Z,17.04
2017-02-23T07:22:10.503Z,17.03
2017-02-23T07:22:36.066Z,17.04
2017-02-23T07:23:01.679Z,16.98
2017-02-23T07:23:27.228Z,16.99
2017-02-23T07:23:52.774Z,16.98
2017-02-23T07:24:18.345Z,16.99
2017-02-23T07:24:43.947Z,17
2017-02-23T07:25:09.532Z,16.99
2017-02-23T07:25:35.090Z,17.04
2017-02-23T07:26:00.641Z,16.96
2017-02-23T07:26:26.224Z,16.92
2017-02-23T07:26:51.783Z,16.99
2017-02-23T07:27:17.350Z,16.99
2017-02-23T07:27:42.911Z,16.99
2017-02-23T07:28:08.550Z,16.99
2017-02-23T07:28:34.107Z,17.04
2017-02-23T07:28:59.648Z,17.04
2017-02-23T07:29:25.213Z,17.08
2017-02-23T07:29:50.784Z,17.08
2017-02-23T07:30:16.705Z,17.07
2017-02-23T07:30:42.360Z,17.06
2017-02-23T07:31:07.948Z,17.13
2017-02-23T07:31:33.493Z,17.11
2017-02-23T07:31:59.050Z,17.06
2017-02-23T07:32:24.613Z,17.08
2017-02-23T07:32:50.175Z,17.08
2017-02-23T07:33:15.735Z,17.07
2017-02-23T07:33:41.305Z,17.06
2017-02-23T07:34:06.921Z,17.07
2017-02-23T07:34:32.591Z,17.11
2017-02-23T07:34:58.160Z,17.1
2017-02-23T07:35:23.726Z,17.07
2017-02-23T07:35:49.360Z,17.07
2017-02-23T07:36:14.952Z,17.07
2017-02-23T07:36:40.511Z,17.04
2017-02-23T07:37:06.079Z,17.07
2017-02-23T07:37:32.613Z,17.06
2017-02-23T07:37:58.193Z,17.07
2017-02-23T07:38:23.773Z,17.06
2017-02-23T07:38:49.329Z,17.04
2017-02-23T07:39:14.909Z,16.99
2017-02-23T07:39:40.471Z,17.07
2017-02-23T07:40:06.051Z,17.15
2017-02-23T07:40:31.809Z,17.07
2017-02-23T07:40:58.198Z,17.13
2017-02-23T07:41:23.773Z,17.1
2017-02-23T07:41:49.947Z,17.08
2017-02-23T07:42:14.886Z,17.03
2017-02-23T07:42:40.431Z,17.07
2017-02-23T07:43:06.020Z,17.07
2017-02-23T07:43:31.581Z,17.07
2017-02-23T07:43:57.142Z,17.07
2017-02-23T07:44:22.798Z,17.07
2017-02-23T07:44:48.373Z,17.08
2017-02-23T07:45:13.921Z,17.11
2017-02-23T07:45:39.490Z,17.1
2017-02-23T07:46:05.042Z,17.07
2017-02-23T07:46:30.591Z,17.08
2017-02-23T07:46:56.165Z,17
2017-02-23T07:47:21.773Z,17.07
2017-02-23T07:47:47.345Z,17.11
2017-02-23T07:48:13.034Z,17.13
2017-02-23T07:48:38.578Z,17.13
2017-02-23T07:49:04.164Z,17.13
2017-02-23T07:49:29.852Z,17.07
2017-02-23T07:49:55.412Z,17.08
2017-02-23T07:50:20.980Z,17.08
2017-02-23T07:50:46.696Z,17.06
2017-02-23T07:51:12.276Z,17.1
2017-02-23T07:51:37.843Z,17.04
2017-02-23T07:52:03.414Z,17.1
2017-02-23T07:52:28.981Z,17.07
2017-02-23T07:52:54.555Z,17.07
2017-02-23T07:53:20.106Z,17.1
2017-02-23T07:53:45.670Z,17.11
2017-02-23T07:54:11.221Z,17.06
2017-02-23T07:54:36.777Z,17.11
2017-02-23T07:55:02.365Z,17.11
2017-02-23T07:55:27.959Z,17.11
2017-02-23T07:55:53.516Z,17.06
2017-02-23T07:56:19.234Z,17.11
2017-02-23T07:56:44.814Z,17.08
2017-02-23T07:57:10.366Z,17.1
2017-02-23T07:57:35.995Z,17.07
2017-02-23T07:58:01.602Z,17
2017-02-23T07:58:27.185Z,17.07
2017-02-23T07:58:53.459Z,17.11
2017-02-23T07:59:19.065Z,17.06
2017-02-23T07:59:44.614Z,17.03
2017-02-23T08:00:10.182Z,17.08
2017-02-23T08:00:35.737Z,17.03
2017-02-23T08:01:01.302Z,17.03
2017-02-23T08:01:26.917Z,17.11
2017-02-23T08:01:52.519Z,17.07
2017-02-23T08:02:18.076Z,17.08
2017-02-23T08:02:43.632Z,17.07
2017-02-23T08:03:09.177Z,17.17
2017-02-23T08:03:34.742Z,17.06
2017-02-23T08:04:00.288Z,17.03
2017-02-23T08:04:25.851Z,17.04
2017-02-23T08:04:51.412Z,17.1
2017-02-23T08:05:17.008Z,17.1
2017-02-23T08:05:42.561Z,17.06
2017-02-23T08:06:08.112Z,17.07
2017-02-23T08:06:33.713Z,17.1
2017-02-23T08:06:59.281Z,17.1
2017-02-23T08:07:25.532Z,17.06
2017-02-23T08:07:51.083Z,17.04
2017-02-23T08:08:16.652Z,17.14
2017-02-23T08:08:42.956Z,17.13
2017-02-23T08:09:07.791Z,17.13
2017-02-23T08:09:33.337Z,17.13
2017-02-23T08:09:58.886Z,17.14
2017-02-23T08:10:24.530Z,17.06
2017-02-23T08:10:50.082Z,17.13
2017-02-23T08:11:15.656Z,17.15
2017-02-23T08:11:41.374Z,17.14
2017-02-23T08:12:06.942Z,17.13
2017-02-23T08:12:32.571Z,17.11
2017-02-23T08:12:58.142Z,17.15
2017-02-23T08:13:23.699Z,17.13
2017-02-23T08:13:49.274Z,17.1
2017-02-23T08:14:14.877Z,17.15
2017-02-23T08:14:41.456Z,17.14
2017-02-23T08:15:06.020Z,17.15
2017-02-23T08:15:31.578Z,17.11
2017-02-23T08:15:58.148Z,17.14
2017-02-23T08:16:23.715Z,17.18
2017-02-23T08:16:49.277Z,17.13
2017-02-23T08:17:15.001Z,17.14
2017-02-23T08:17:40.617Z,17.14
2017-02-23T08:18:06.214Z,17.15
2017-02-23T08:18:31.784Z,17.17
2017-02-23T08:18:57.340Z,17.17
2017-02-23T08:19:22.889Z,17.13
2017-02-23T08:19:48.469Z,17.11
2017-02-23T08:20:14.052Z,17.1
2017-02-23T08:20:39.621Z,17.13
2017-02-23T08:21:05.204Z,17.11
2017-02-23T08:21:30.771Z,17.08
2017-02-23T08:21:56.362Z,17.15
2017-02-23T08:22:21.923Z,17.1
2017-02-23T08:22:47.493Z,17.18
2017-02-23T08:23:13.062Z,17.17
2017-02-23T08:23:38.625Z,17.17
2017-02-23T08:24:04.204Z,17.14
2017-02-23T08:24:29.765Z,17.11
2017-02-23T08:24:55.336Z,17.17
2017-02-23T08:25:20.876Z,17.11
2017-02-23T08:25:46.440Z,17.17
2017-02-23T08:26:12.078Z,17.14
2017-02-23T08:26:37.631Z,17.15
2017-02-23T08:27:03.200Z,17.11
2017-02-23T08:27:28.821Z,17.15
2017-02-23T08:27:54.412Z,17.11
2017-02-23T08:28:20.964Z,17.07
2017-02-23T08:28:45.553Z,17.14
2017-02-23T08:29:11.256Z,17.14
2017-02-23T08:29:36.816Z,17.14
2017-02-23T08:30:02.430Z,17.11
2017-02-23T08:30:27.998Z,17.13
2017-02-23T08:30:53.679Z,17.14
2017-02-23T08:31:19.334Z,17.14
2017-02-23T08:31:44.866Z,17.11
2017-02-23T08:32:10.413Z,17.1
2017-02-23T08:32:35.964Z,17.08
2017-02-23T08:33:01.544Z,17.14
2017-02-23T08:33:27.077Z,17.11
2017-02-23T08:33:53.473Z,17.11
2017-02-23T08:34:18.273Z,17.1
2017-02-23T08:34:43.840Z,17.1
2017-02-23T08:35:09.387Z,17.14
2017-02-23T08:35:34.968Z,17.11
2017-02-23T08:36:24.030Z,17.25
2017-02-23T08:36:48.783Z,17.14
2017-02-23T08:37:14.357Z,17.11
2017-02-23T08:37:39.880Z,17.17
2017-02-23T08:38:05.425Z,17.11
2017-02-23T08:38:31.003Z,17.13
2017-02-23T08:38:56.592Z,17.25
2017-02-23T08:39:22.709Z,17.23
2017-02-23T08:39:48.423Z,17.11
2017-02-23T08:40:13.985Z,17.23
2017-02-23T08:40:39.685Z,17.22
2017-02-23T08:41:05.226Z,17.2
2017-02-23T08:41:30.779Z,17.14
2017-02-23T08:41:56.314Z,17.17
2017-02-23T08:42:21.863Z,17.13
2017-02-23T08:42:47.448Z,17.17
2017-02-23T08:43:13.023Z,17.17
2017-02-23T08:43:38.574Z,17.25
2017-02-23T08:44:04.147Z,17.11
2017-02-23T08:44:29.723Z,17.14
2017-02-23T08:44:55.278Z,17.11
2017-02-23T08:45:20.834Z,17.2
2017-02-23T08:45:46.383Z,17.22
2017-02-23T08:46:11.941Z,17.23
2017-02-23T08:46:37.499Z,17.2
2017-02-23T08:47:03.056Z,17.17
2017-02-23T08:47:28.606Z,17.11
2017-02-23T08:47:55.037Z,17.23
2017-02-23T08:48:20.017Z,17.17
2017-02-23T08:48:45.693Z,17.18
2017-02-23T08:49:11.248Z,17.23
2017-02-23T08:49:36.795Z,17.25
2017-02-23T08:50:02.359Z,17.2
2017-02-23T08:50:27.924Z,17.2
2017-02-23T08:50:53.481Z,17.25
2017-02-23T08:51:19.538Z,17.22
2017-02-23T08:51:44.604Z,17.22
2017-02-23T08:52:53.242Z,17.23
2017-02-23T08:55:00.550Z,17.17
2017-02-23T08:55:26.120Z,17.22
2017-02-23T08:55:51.701Z,17.2
2017-02-23T08:57:00.076Z,17.25
2017-02-23T08:57:25.558Z,17.18
2017-02-23T08:57:51.217Z,17.2
2017-02-23T08:58:16.790Z,17.2
2017-02-23T08:58:42.344Z,17.17
2017-02-23T08:59:45.849Z,17.28
2017-02-23T09:00:11.412Z,17.18
2017-02-23T09:00:36.982Z,17.22
2017-02-23T09:01:02.562Z,17.2
2017-02-23T09:01:28.110Z,17.2
2017-02-23T09:01:53.684Z,17.18
2017-02-23T09:02:19.270Z,17.25
2017-02-23T09:02:44.851Z,17.23
2017-02-23T09:03:10.426Z,17.23
2017-02-23T09:03:35.985Z,17.22
2017-02-23T09:04:01.559Z,17.22
2017-02-23T09:04:27.753Z,17.2
2017-02-23T09:04:53.330Z,17.23
2017-02-23T09:05:18.900Z,17.25
2017-02-23T09:05:44.464Z,17.22
2017-02-23T09:06:10.046Z,17.23
2017-02-23T09:06:35.607Z,17.28
2017-02-23T09:07:01.162Z,17.25
2017-02-23T09:07:26.723Z,17.13
2017-02-23T09:07:52.269Z,17.25
2017-02-23T09:08:17.850Z,17.23
2017-02-23T09:08:43.422Z,17.26
2017-02-23T09:09:09.752Z,17.23
2017-02-23T09:09:35.102Z,17.26
2017-02-23T09:10:00.653Z,17.26
2017-02-23T09:10:26.219Z,17.23
2017-02-23T09:10:51.839Z,17.25
2017-02-23T09:11:17.408Z,17.25
2017-02-23T09:11:42.994Z,17.2
2017-02-23T09:12:08.543Z,17.18
2017-02-23T09:12:34.117Z,17.25
2017-02-23T09:12:59.683Z,17.26
2017-02-23T09:13:25.251Z,17.25
2017-02-23T09:13:51.610Z,17.25
2017-02-23T09:14:17.205Z,17.15
2017-02-23T09:14:42.816Z,17.25
2017-02-23T09:15:08.386Z,17.25
2017-02-23T09:15:33.952Z,17.25
2017-02-23T09:16:00.491Z,17.28
2017-02-23T09:16:26.080Z,17.25
2017-02-23T09:16:51.651Z,17.29
2017-02-23T09:17:17.219Z,17.23
2017-02-23T09:17:42.819Z,17.25
2017-02-23T09:18:08.376Z,17.23
2017-02-23T09:18:33.953Z,17.26
2017-02-23T09:18:59.642Z,17.26
2017-02-23T09:19:25.195Z,17.26
2017-02-23T09:19:50.739Z,17.2
2017-02-23T09:20:16.328Z,17.3
2017-02-23T09:20:41.880Z,17.3
2017-02-23T09:21:07.451Z,17.28
2017-02-23T09:21:33.149Z,17.18
2017-02-23T09:21:58.746Z,17.23
2017-02-23T09:22:24.330Z,17.22
2017-02-23T09:22:49.900Z,17.25
2017-02-23T09:23:15.463Z,17.22
2017-02-23T09:23:41.033Z,17.29
2017-02-23T09:24:06.603Z,17.25
2017-02-23T09:24:32.177Z,17.25
2017-02-23T09:24:58.303Z,17.26
2017-02-23T09:25:23.874Z,17.29
2017-02-23T09:25:49.441Z,17.26
2017-02-23T09:26:15.771Z,17.26
2017-02-23T09:27:09.189Z,17.28
2017-02-23T09:27:34.733Z,17.3
2017-02-23T09:28:00.312Z,17.28
2017-02-23T09:28:25.889Z,17.22
2017-02-23T09:28:51.502Z,17.28
2017-02-23T09:29:17.067Z,17.25
2017-02-23T09:29:42.633Z,17.28
2017-02-23T09:30:08.206Z,17.26
2017-02-23T09:30:33.752Z,17.23
2017-02-23T09:30:59.344Z,17.26
2017-02-23T09:31:24.951Z,17.3
2017-02-23T09:31:50.515Z,17.33
2017-02-23T09:32:16.160Z,17.32
2017-02-23T09:32:41.773Z,17.32
2017-02-23T09:33:07.334Z,17.3
2017-02-23T09:33:32.892Z,17.25
2017-02-23T09:33:58.482Z,17.2
2017-02-23T09:34:24.041Z,17.23
2017-02-23T09:34:49.603Z,17.28
2017-02-23T09:35:15.155Z,17.26
2017-02-23T09:35:40.724Z,17.29
2017-02-23T09:36:06.287Z,17.26
2017-02-23T09:36:31.836Z,17.29
2017-02-23T09:36:57.408Z,17.28
2017-02-23T09:37:22.977Z,17.29
2017-02-23T09:37:48.546Z,17.32
2017-02-23T09:38:14.112Z,17.25
2017-02-23T09:38:39.689Z,17.3
2017-02-23T09:39:05.262Z,17.29
2017-02-23T09:39:30.810Z,17.4
2017-02-23T09:39:56.389Z,17.33
2017-02-23T09:40:21.949Z,17.32
2017-02-23T09:40:47.524Z,17.29
2017-02-23T09:41:13.078Z,17.32
2017-02-23T09:41:38.639Z,17.32
2017-02-23T09:42:04.190Z,17.33
2017-02-23T09:42:29.748Z,17.36
2017-02-23T09:42:55.323Z,17.3
2017-02-23T09:43:20.910Z,17.32
2017-02-23T09:43:46.484Z,17.3